createdAt,value
2017-11-10T00:02:40.911Z,8.68
2017-11-10T00:08:21.731Z,8.59
2017-11-10T00:16:40.478Z,8.45
2017-11-10T00:19:13.003Z,8.44
2017-11-10T00:21:44.774Z,8.32
2017-11-10T00:24:16.350Z,8.30
2017-11-10T00:26:47.780Z,8.29
2017-11-10T00:29:21.162Z,8.34
2017-11-10T00:31:53.309Z,8.31
2017-11-10T00:34:27.052Z,8.26
2017-11-10T00:37:00.491Z,8.22
2017-11-10T00:39:33.109Z,8.19
2017-11-10T00:42:12.405Z,8.09
2017-11-10T00:44:44.186Z,8.08
2017-11-10T00:47:16.731Z,8.04
2017-11-10T00:49:48.959Z,8.08
2017-11-10T00:52:23.265Z,8.06
2017-11-10T00:54:57.393Z,8.04
2017-11-10T00:57:30.919Z,8.00
2017-11-10T01:00:05.338Z,7.88
2017-11-10T01:02:41.973Z,7.87
2017-11-10T01:05:26.369Z,7.78
2017-11-10T01:08:21.345Z,7.71
2017-11-10T01:10:52.789Z,7.63
2017-11-10T01:13:27.675Z,7.65
2017-11-10T01:15:59.152Z,7.62
2017-11-10T01:18:30.903Z,7.60
2017-11-10T01:21:04.159Z,7.57
2017-11-10T01:23:36.184Z,7.58
2017-11-10T01:26:08.517Z,7.67
2017-11-10T01:28:39.940Z,7.72
2017-11-10T01:31:11.943Z,7.87
2017-11-10T01:33:44.042Z,7.88
2017-11-10T01:36:19.720Z,7.79
2017-11-10T01:38:51.493Z,7.71
2017-11-10T01:41:25.292Z,7.72
2017-11-10T01:43:56.746Z,7.78
2017-11-10T01:46:28.516Z,7.81
2017-11-10T01:48:59.925Z,7.81
2017-11-10T01:51:31.628Z,7.86
2017-11-10T01:54:04.483Z,7.93
2017-11-10T01:56:39.659Z,7.96
2017-11-10T01:59:11.456Z,8.03
2017-11-10T02:01:44.672Z,8.07
2017-11-10T02:04:17.529Z,8.07
2017-11-10T02:06:49.418Z,8.08
2017-11-10T02:09:22.164Z,8.08
2017-11-10T02:11:53.577Z,8.10
2017-11-10T02:14:28.345Z,8.11
2017-11-10T02:16:59.747Z,8.13
2017-11-10T02:19:31.223Z,8.19
2017-11-10T02:22:06.464Z,8.21
2017-11-10T02:24:39.307Z,8.25
2017-11-10T02:27:11.743Z,8.31
2017-11-10T02:29:43.898Z,8.31
2017-11-10T02:32:22.471Z,8.26
2017-11-10T02:34:57.712Z,8.26
2017-11-10T02:37:30.892Z,8.26
2017-11-10T02:40:06.350Z,8.28
2017-11-10T02:42:40.178Z,8.23
2017-11-10T02:45:13.566Z,8.19
2017-11-10T02:47:46.194Z,8.17
2017-11-10T02:50:22.870Z,8.19
2017-11-10T02:52:54.321Z,8.15
2017-11-10T02:55:26.436Z,8.16
2017-11-10T02:57:58.346Z,8.18
2017-11-10T03:03:26.921Z,8.15
2017-11-10T03:05:59.234Z,8.12
2017-11-10T03:08:32.338Z,8.05
2017-11-10T03:11:06.003Z,7.97
2017-11-10T03:16:43.269Z,7.93
2017-11-10T03:21:57.204Z,7.92
2017-11-10T03:24:29.260Z,7.94
2017-11-10T03:27:02.219Z,7.93
2017-11-10T03:29:34.598Z,7.90
2017-11-10T03:32:07.635Z,7.93
2017-11-10T03:34:40.045Z,7.92
2017-11-10T03:37:12.079Z,7.86
2017-11-10T03:39:44.582Z,7.77
2017-11-10T03:42:16.918Z,7.71
2017-11-10T03:44:49.065Z,7.69
2017-11-10T03:47:21.573Z,7.65
2017-11-10T03:49:54.606Z,7.61
2017-11-10T03:52:26.814Z,7.58
2017-11-10T03:55:00.163Z,7.59
2017-11-10T03:57:32.469Z,7.60
2017-11-10T04:00:06.730Z,7.60
2017-11-10T04:02:39.408Z,7.58
2017-11-10T04:05:11.593Z,7.57
2017-11-10T04:07:43.808Z,7.60
2017-11-10T04:10:17.086Z,7.58
2017-11-10T04:12:49.084Z,7.63
2017-11-10T04:15:21.267Z,7.70
2017-11-10T04:17:53.822Z,7.75
2017-11-10T04:20:27.062Z,7.80
2017-11-10T04:22:59.400Z,7.82
2017-11-10T04:25:31.469Z,7.83
2017-11-10T04:28:05.873Z,7.84
2017-11-10T04:30:38.387Z,7.87
2017-11-10T04:33:10.511Z,7.82
2017-11-10T04:35:42.477Z,7.81
2017-11-10T04:38:14.924Z,7.81
2017-11-10T04:40:47.088Z,7.83
2017-11-10T04:43:19.604Z,7.85
2017-11-10T04:45:51.775Z,7.90
2017-11-10T04:48:23.822Z,7.93
2017-11-10T04:50:56.524Z,7.95
2017-11-10T04:53:28.780Z,7.94
2017-11-10T04:56:01.648Z,7.99
2017-11-10T04:58:35.085Z,7.95
2017-11-10T05:01:08.329Z,7.95
2017-11-10T05:03:40.692Z,7.99
2017-11-10T05:06:14.719Z,7.98
2017-11-10T05:08:47.037Z,7.99
2017-11-10T05:11:19.865Z,8.02
2017-11-10T05:13:51.977Z,8.04
2017-11-10T05:16:24.857Z,8.11
2017-11-10T05:18:58.331Z,8.14
2017-11-10T05:21:30.699Z,8.15
2017-11-10T05:24:03.875Z,8.16
2017-11-10T05:26:36.178Z,8.18
2017-11-10T05:29:08.313Z,8.24
2017-11-10T05:31:40.869Z,8.25
2017-11-10T05:34:16.503Z,8.26
2017-11-10T05:36:48.798Z,8.25
2017-11-10T05:39:22.008Z,8.30
2017-11-10T05:41:55.197Z,8.28
2017-11-10T05:44:27.314Z,8.28
2017-11-10T05:46:59.919Z,8.25
2017-11-10T05:49:32.013Z,8.28
2017-11-10T05:52:07.045Z,8.34
2017-11-10T05:54:39.296Z,8.35
2017-11-10T05:57:11.423Z,8.35
2017-11-10T05:59:43.955Z,8.34
2017-11-10T06:02:17.174Z,8.35
2017-11-10T06:04:49.789Z,8.41
2017-11-10T06:07:21.906Z,8.41
2017-11-10T06:09:54.084Z,8.41
2017-11-10T06:12:26.452Z,8.38
2017-11-10T06:14:58.571Z,8.40
2017-11-10T06:17:30.738Z,8.38
2017-11-10T06:20:07.147Z,8.38
2017-11-10T06:22:39.223Z,8.36
2017-11-10T06:25:11.262Z,8.36
2017-11-10T06:27:43.618Z,8.35
2017-11-10T06:30:17.572Z,8.36
2017-11-10T06:32:49.992Z,8.31
2017-11-10T06:35:22.439Z,8.33
2017-11-10T06:37:54.746Z,8.37
2017-11-10T06:40:27.027Z,8.28
2017-11-10T06:42:59.395Z,8.22
2017-11-10T06:45:31.467Z,8.27
2017-11-10T06:48:06.183Z,8.28
2017-11-10T06:50:45.867Z,8.26
2017-11-10T06:53:17.830Z,8.30
2017-11-10T06:55:50.378Z,8.33
2017-11-10T06:58:22.588Z,8.38
2017-11-10T07:00:54.953Z,8.45
2017-11-10T07:03:26.961Z,8.45
2017-11-10T07:05:59.468Z,8.44
2017-11-10T07:08:31.913Z,8.45
2017-11-10T07:11:05.040Z,8.48
2017-11-10T07:13:37.107Z,8.48
2017-11-10T07:16:11.233Z,8.49
2017-11-10T07:18:43.170Z,8.47
2017-11-10T07:21:15.311Z,8.52
2017-11-10T07:23:47.316Z,8.51
2017-11-10T07:26:21.757Z,8.54
2017-11-10T07:28:54.674Z,8.54
2017-11-10T07:31:26.679Z,8.59
2017-11-10T07:34:06.535Z,8.65
2017-11-10T07:36:38.532Z,8.66
2017-11-10T07:39:11.404Z,8.64
2017-11-10T07:41:43.460Z,8.66
2017-11-10T07:44:15.857Z,8.67
2017-11-10T07:46:47.877Z,8.68
2017-11-10T07:49:20.841Z,8.74
2017-11-10T07:51:53.078Z,8.79
2017-11-10T07:54:24.903Z,8.78
2017-11-10T07:56:57.229Z,8.83
2017-11-10T07:59:29.346Z,8.83
2017-11-10T08:02:02.977Z,8.82
2017-11-10T08:04:41.180Z,8.83
2017-11-10T08:07:14.368Z,8.96
2017-11-10T08:09:46.649Z,8.93
2017-11-10T08:12:21.500Z,9.03
2017-11-10T08:14:54.298Z,9.02
2017-11-10T08:17:26.330Z,9.05
2017-11-10T08:20:00.276Z,9.03
2017-11-10T08:22:32.513Z,9.04
2017-11-10T08:25:08.132Z,9.05
2017-11-10T08:27:40.573Z,9.02
2017-11-10T08:30:18.505Z,8.96
2017-11-10T08:32:50.888Z,8.93
2017-11-10T08:35:22.886Z,8.90
2017-11-10T08:37:55.431Z,8.92
2017-11-10T08:40:27.888Z,8.93
2017-11-10T08:43:01.748Z,8.94
2017-11-10T08:45:34.156Z,8.90
2017-11-10T08:48:12.777Z,8.88
2017-11-10T08:50:45.063Z,8.83
2017-11-10T08:53:17.141Z,8.79
2017-11-10T08:55:49.227Z,8.87
2017-11-10T08:58:22.632Z,8.86
2017-11-10T09:00:55.149Z,8.93
2017-11-10T09:03:27.384Z,8.94
2017-11-10T09:05:59.501Z,8.93
2017-11-10T09:08:31.587Z,8.93
2017-11-10T09:11:04.993Z,8.94
2017-11-10T09:13:40.055Z,8.89
2017-11-10T09:16:15.417Z,8.92
2017-11-10T09:18:47.890Z,8.98
2017-11-10T09:21:20.037Z,9.05
2017-11-10T09:23:52.373Z,9.11
2017-11-10T09:26:26.183Z,9.12
2017-11-10T09:28:58.815Z,9.16
2017-11-10T09:31:31.264Z,9.20
2017-11-10T09:34:04.716Z,9.22
2017-11-10T09:36:37.291Z,9.31
2017-11-10T09:39:10.172Z,9.39
2017-11-10T09:41:43.458Z,9.40
2017-11-10T09:44:19.452Z,9.39
2017-11-10T09:46:52.658Z,9.46
2017-11-10T09:49:29.018Z,9.45
2017-11-10T09:52:04.795Z,9.53
2017-11-10T09:54:37.906Z,9.46
2017-11-10T09:57:12.708Z,9.38
2017-11-10T09:59:45.048Z,9.35
2017-11-10T10:02:18.712Z,9.33
2017-11-10T10:04:58.719Z,9.24
2017-11-10T10:07:32.063Z,9.24
2017-11-10T10:10:08.994Z,9.23
2017-11-10T10:12:41.532Z,9.19
2017-11-10T10:15:14.248Z,9.25
2017-11-10T10:17:46.514Z,9.14
2017-11-10T10:20:22.644Z,9.06
2017-11-10T10:22:55.428Z,9.00
2017-11-10T10:25:27.748Z,8.92
2017-11-10T10:27:59.950Z,8.94
2017-11-10T10:30:32.586Z,9.04
2017-11-10T10:33:06.493Z,9.01
2017-11-10T10:35:38.642Z,9.10
2017-11-10T10:38:15.112Z,9.16
2017-11-10T10:40:47.312Z,9.17
2017-11-10T10:43:19.722Z,9.19
2017-11-10T10:45:52.172Z,9.28
2017-11-10T10:48:27.513Z,9.30
2017-11-10T10:51:00.349Z,9.23
2017-11-10T10:53:33.273Z,9.22
2017-11-10T10:56:11.018Z,9.20
2017-11-10T11:01:39.085Z,9.10
2017-11-10T11:04:11.476Z,9.16
2017-11-10T11:06:43.882Z,9.11
2017-11-10T11:09:42.812Z,9.00
2017-11-10T11:12:15.842Z,8.94
2017-11-10T11:17:55.283Z,8.91
2017-11-10T11:20:27.462Z,8.81
2017-11-10T11:23:00.112Z,8.82
2017-11-10T11:25:35.676Z,8.75
2017-11-10T11:28:09.724Z,8.65
2017-11-10T11:30:41.667Z,8.64
2017-11-10T11:33:28.894Z,8.72
2017-11-10T11:36:02.827Z,8.79
2017-11-10T11:38:34.565Z,8.78
2017-11-10T11:41:12.302Z,8.84
2017-11-10T11:43:45.805Z,8.85
2017-11-10T11:46:21.886Z,8.95
2017-11-10T11:48:53.633Z,8.95
2017-11-10T11:51:26.274Z,8.89
2017-11-10T11:53:58.598Z,8.95
2017-11-10T11:59:24.841Z,8.94
2017-11-10T12:01:56.436Z,8.93
2017-11-10T12:04:28.693Z,8.98
2017-11-10T12:07:00.529Z,8.90
2017-11-10T12:09:34.414Z,8.89
2017-11-10T12:12:09.255Z,8.92
2017-11-10T12:14:42.400Z,8.96
2017-11-10T12:17:14.749Z,8.97
2017-11-10T12:19:47.525Z,8.92
2017-11-10T12:22:23.190Z,8.96
2017-11-10T12:24:55.763Z,9.02
2017-11-10T12:27:39.873Z,8.99
2017-11-10T12:33:27.287Z,9.06
2017-11-10T12:36:02.325Z,9.12
2017-11-10T12:38:41.136Z,9.10
2017-11-10T12:41:15.581Z,9.15
2017-11-10T12:43:48.641Z,9.23
2017-11-10T12:46:25.254Z,9.22
2017-11-10T12:49:03.040Z,9.23
2017-11-10T12:51:43.468Z,9.16
2017-11-10T12:54:22.817Z,9.18
2017-11-10T12:56:56.589Z,9.22
2017-11-10T12:59:30.272Z,9.15
2017-11-10T13:05:13.651Z,9.12
2017-11-10T13:07:54.954Z,9.09
2017-11-10T13:10:31.076Z,9.02
2017-11-10T13:13:08.365Z,8.99
2017-11-10T13:16:45.827Z,8.97
2017-11-10T13:19:21.267Z,8.91
2017-11-10T13:21:54.011Z,8.90
2017-11-10T13:24:27.875Z,8.91
2017-11-10T13:27:04.556Z,8.90
2017-11-10T13:29:41.512Z,8.98
2017-11-10T13:32:23.474Z,9.01
2017-11-10T13:35:18.642Z,8.98
2017-11-10T13:37:54.043Z,9.02
2017-11-10T13:40:45.646Z,8.98
2017-11-10T13:43:34.077Z,8.92
2017-11-10T13:46:15.256Z,8.91
2017-11-10T13:48:57.049Z,8.92
2017-11-10T13:54:56.757Z,8.98
2017-11-10T13:57:30.594Z,9.00
2017-11-10T14:00:11.360Z,9.06
2017-11-10T14:02:44.039Z,9.06
2017-11-10T14:05:19.490Z,9.11
2017-11-10T14:08:00.743Z,9.13
2017-11-10T14:13:49.038Z,9.09
2017-11-10T14:16:26.509Z,9.11
2017-11-10T14:19:02.942Z,9.14
2017-11-10T14:21:35.662Z,9.04
2017-11-10T14:27:22.116Z,8.95
2017-11-10T14:32:59.027Z,9.08
2017-11-10T14:35:31.447Z,9.14
2017-11-10T14:38:06.998Z,9.24
2017-11-10T14:40:41.544Z,9.33
2017-11-10T14:43:14.154Z,9.36
2017-11-10T14:45:48.808Z,9.29
2017-11-10T14:51:29.046Z,9.27
2017-11-10T14:54:02.784Z,9.30
2017-11-10T14:56:37.019Z,9.33
2017-11-10T15:02:09.254Z,9.44
2017-11-10T15:04:41.013Z,9.33
2017-11-10T15:07:19.098Z,9.34
2017-11-10T15:09:50.900Z,9.36
2017-11-10T15:12:26.616Z,9.38
2017-11-10T15:15:02.452Z,9.34
2017-11-10T15:17:51.431Z,9.31
2017-11-10T15:20:26.403Z,9.33
2017-11-10T15:22:58.915Z,9.35
2017-11-10T15:25:33.403Z,9.37
2017-11-10T15:34:12.016Z,9.47
2017-11-10T15:39:48.877Z,9.41
2017-11-10T15:42:25.783Z,9.40
2017-11-10T15:45:00.810Z,9.37
2017-11-10T15:47:32.895Z,9.37
2017-11-10T15:50:06.903Z,9.34
2017-11-10T15:52:38.857Z,9.34
2017-11-10T15:55:10.543Z,9.30
2017-11-10T15:57:42.340Z,9.28
2017-11-10T16:00:15.807Z,9.31
2017-11-10T16:02:47.614Z,9.29
2017-11-10T16:08:24.632Z,9.30
2017-11-10T16:10:59.334Z,9.32
2017-11-10T16:13:34.455Z,9.39
2017-11-10T16:16:24.116Z,9.40
2017-11-10T16:18:56.524Z,9.40
2017-11-10T16:21:29.600Z,9.41
2017-11-10T16:24:08.558Z,9.44
2017-11-10T16:26:44.484Z,9.39
2017-11-10T16:29:18.380Z,9.46
2017-11-10T16:34:46.167Z,9.53
2017-11-10T16:37:19.547Z,9.50
2017-11-10T16:39:53.369Z,9.51
2017-11-10T16:42:26.524Z,9.49
2017-11-10T16:44:59.067Z,9.51
2017-11-10T16:47:39.913Z,9.44
2017-11-10T16:56:18.718Z,9.57
2017-11-10T16:58:51.506Z,9.53
2017-11-10T17:04:35.304Z,9.56
2017-11-10T17:07:09.178Z,9.57
2017-11-10T17:09:42.382Z,9.54
2017-11-10T17:12:19.364Z,9.60
2017-11-10T17:14:52.627Z,9.63
2017-11-10T17:20:33.238Z,9.63
2017-11-10T17:29:17.900Z,9.63
2017-11-10T17:34:51.539Z,9.61
2017-11-10T17:37:23.485Z,9.62
2017-11-10T17:39:58.004Z,9.62
2017-11-10T17:42:37.122Z,9.67
2017-11-10T17:45:13.069Z,9.65
2017-11-10T17:47:48.818Z,9.65
2017-11-10T17:50:24.102Z,9.60
2017-11-10T17:52:57.731Z,9.64
2017-11-10T17:55:29.954Z,9.60
2017-11-10T17:58:12.854Z,9.61
2017-11-10T18:00:47.859Z,9.58
2017-11-10T18:03:19.955Z,9.53
2017-11-10T18:05:54.108Z,9.54
2017-11-10T18:08:28.761Z,9.54
2017-11-10T18:11:00.996Z,9.51
2017-11-10T18:13:33.984Z,9.46
2017-11-10T18:16:10.380Z,9.45
2017-11-10T18:18:44.016Z,9.40
2017-11-10T18:21:16.947Z,9.46
2017-11-10T18:32:50.552Z,9.37
2017-11-10T18:35:34.767Z,9.41
2017-11-10T18:38:22.789Z,9.43
2017-11-10T18:40:58.314Z,9.45
2017-11-10T18:43:59.901Z,9.40
2017-11-10T18:46:40.233Z,9.42
2017-11-10T18:49:23.710Z,9.45
2017-11-10T18:52:00.113Z,9.45
2017-11-10T18:54:35.772Z,9.44
2017-11-10T18:57:19.255Z,9.38
2017-11-10T18:59:54.335Z,9.42
2017-11-10T19:02:27.985Z,9.46
2017-11-10T19:05:00.758Z,9.49
2017-11-10T19:07:37.957Z,9.51
2017-11-10T19:10:20.509Z,9.49
2017-11-10T19:12:55.883Z,9.50
2017-11-10T19:15:36.554Z,9.44
2017-11-10T19:18:30.101Z,9.40
2017-11-10T19:21:10.496Z,9.40
2017-11-10T19:23:44.229Z,9.46
2017-11-10T19:26:30.407Z,9.47
2017-11-10T19:29:12.624Z,9.53
2017-11-10T19:31:45.182Z,9.55
2017-11-10T19:34:17.647Z,9.57
2017-11-10T19:36:52.721Z,9.60
2017-11-10T19:39:32.396Z,9.64
2017-11-10T19:42:15.335Z,9.63
2017-11-10T19:44:49.447Z,9.61
2017-11-10T19:47:23.725Z,9.64
2017-11-10T19:49:59.807Z,9.70
2017-11-10T19:52:32.098Z,9.72
2017-11-10T19:55:06.954Z,9.74
2017-11-10T19:57:41.254Z,9.68
2017-11-10T20:00:30.645Z,9.71
2017-11-10T20:03:24.928Z,9.67
2017-11-10T20:05:59.731Z,9.65
2017-11-10T20:11:33.572Z,9.65
2017-11-10T20:14:07.773Z,9.64
2017-11-10T20:16:51.435Z,9.63
2017-11-10T20:19:24.033Z,9.61
2017-11-10T20:21:57.178Z,9.62
2017-11-10T20:24:30.653Z,9.60
2017-11-10T20:27:05.718Z,9.57
2017-11-10T20:29:37.255Z,9.54
2017-11-10T20:32:16.132Z,9.55
2017-11-10T20:34:48.702Z,9.58
2017-11-10T20:37:20.311Z,9.60
2017-11-10T20:39:54.023Z,9.62
2017-11-10T20:42:26.346Z,9.63
2017-11-10T20:44:58.101Z,9.62
2017-11-10T20:47:32.147Z,9.64
2017-11-10T20:50:08.598Z,9.66
2017-11-10T20:52:40.959Z,9.64
2017-11-10T20:55:13.146Z,9.68
2017-11-10T20:57:44.751Z,9.75
2017-11-10T21:00:19.070Z,9.84
2017-11-10T21:02:54.612Z,9.99
2017-11-10T21:05:26.181Z,10.07
2017-11-10T21:07:57.899Z,10.14
2017-11-10T21:10:31.165Z,10.15
2017-11-10T21:13:07.231Z,10.19
2017-11-10T21:15:41.628Z,10.19
2017-11-10T21:18:13.162Z,10.24
2017-11-10T21:20:48.087Z,10.26
2017-11-10T21:26:25.777Z,10.25
2017-11-10T21:28:57.322Z,10.25
2017-11-10T21:31:32.959Z,10.22
2017-11-10T21:34:06.294Z,10.19
2017-11-10T21:39:34.127Z,10.16
2017-11-10T21:42:21.338Z,10.13
2017-11-10T21:45:04.750Z,10.11
2017-11-10T21:51:10.220Z,10.09
2017-11-10T21:53:46.248Z,10.07
2017-11-10T21:56:28.780Z,10.04
2017-11-10T21:59:02.405Z,9.98
2017-11-10T22:01:35.548Z,9.93
2017-11-10T22:04:10.518Z,9.91
2017-11-10T22:06:43.004Z,9.86
2017-11-10T22:09:16.686Z,9.85
2017-11-10T22:11:51.041Z,9.77
2017-11-10T22:14:22.861Z,9.64
2017-11-10T22:16:54.970Z,9.50
2017-11-10T22:19:29.370Z,9.43
2017-11-10T22:22:03.508Z,9.31
2017-11-10T22:24:39.406Z,9.24
2017-11-10T22:27:11.817Z,9.16
2017-11-10T22:29:44.639Z,9.10
2017-11-10T22:32:17.251Z,9.00
2017-11-10T22:34:49.283Z,8.93
2017-11-10T22:37:22.607Z,8.84
2017-11-10T22:39:55.234Z,8.84
2017-11-10T22:42:29.250Z,8.81
2017-11-10T22:45:04.227Z,8.76
2017-11-10T22:47:36.864Z,8.74
2017-11-10T22:50:18.320Z,8.69
2017-11-10T22:52:52.176Z,8.67
2017-11-10T22:55:31.083Z,8.64
2017-11-10T22:58:04.645Z,8.64
2017-11-10T23:00:37.477Z,8.61
2017-11-10T23:03:10.042Z,8.58
2017-11-10T23:05:44.110Z,8.57
2017-11-10T23:08:16.428Z,8.53
2017-11-10T23:10:51.364Z,8.50
2017-11-10T23:13:23.528Z,8.43
2017-11-10T23:15:55.869Z,8.36
2017-11-10T23:18:28.334Z,8.32
2017-11-10T23:21:04.883Z,8.28
2017-11-10T23:23:43.229Z,8.28
2017-11-10T23:29:22.352Z,8.22
2017-11-10T23:31:58.912Z,8.20
2017-11-10T23:34:31.438Z,8.19
2017-11-10T23:37:04.686Z,8.17
2017-11-10T23:39:36.488Z,8.18
2017-11-10T23:42:18.842Z,8.17
2017-11-10T23:44:52.240Z,8.15
2017-11-10T23:47:25.523Z,8.09
2017-11-10T23:50:00.814Z,8.06
2017-11-10T23:52:33.273Z,8.05
2017-11-10T23:55:06.326Z,8.03
2017-11-10T23:57:42.433Z,8.05
